Página principal
METAR-TAF:

METAR-TAF

Aeroportos :

N'Djamena, Chade

Aeroporto Internacional de N'Djamena

latitude: 12-08N, longitude: 015-02E, altura: 295 m

Observação actual do tempo

O boletim foi feito há 1 hora e 1 minutos, às 19:00 UTC
Vento 5 kt de nor-noroeste, variando entre oes-noroeste e norte
Temperatura 29°C
Humidade 25%
Pressão 1012 hPa
Visibilidade: 7000 m

METAR: FTTJ 121900Z 34005KT 290V360 7000 NSC 29/07 Q1012 NOSIG

Hora: 21:01 (20:01 UTC)

Previsão

O boletim foi feito há 3 horas e 0 minutos, às 17:01 UTC
Previsão válida de 12 às 18 UTC a 13 às 24 UTC
Vento 6 kt de nor-nordeste
Visibilidade 10 km ou mais
sem nuvens abaixo de 1500 metros e sem cumulonimbus
Temporariamente
de 13 às 08 UTC a 13 às 16 UTC
Vento 10 kt de este

TAF: FTTJ 121701Z 1218/1324 02006KT CAVOK TEMPO 1308/1316 08010KT

Observações e previsões do tempo de mais de 4000 aeroportos (mensagens METAR e TAF).

As estações disponíveis são os pontos amarelos e vermelhos sobre o mapa.

Mova o rato sobre o mapa para ver o nome da estação.

Depois clique no ponto para visualizar as observações e previsões meteorológicas.

Para alterar o mapa : clique nos botões verdes com uma cruz preta para aumentar o zoom; no botão verde com uma pitada de zoom; ou nas setas verdes para mapas adjacentes.


METAR-TAF: